sensor_id;sensor_type;location;lat;lon;timestamp;P1;durP1;ratioP1;P2;durP2;ratioP2
56083;SDS011;41958;52.416;13.428;2022-12-18T00:00:59;40.15;;;11.55;;
56083;SDS011;41958;52.416;13.428;2022-12-18T00:03:24;35.97;;;11.20;;
56083;SDS011;41958;52.416;13.428;2022-12-18T00:05:50;32.88;;;11.27;;
56083;SDS011;41958;52.416;13.428;2022-12-18T00:08:16;36.13;;;11.23;;
56083;SDS011;41958;52.416;13.428;2022-12-18T00:10:42;40.92;;;11.00;;
56083;SDS011;41958;52.416;13.428;2022-12-18T00:13:07;41.85;;;12.25;;
56083;SDS011;41958;52.416;13.428;2022-12-18T00:15:34;40.22;;;13.00;;
56083;SDS011;41958;52.416;13.428;2022-12-18T00:18:00;38.88;;;10.65;;
56083;SDS011;41958;52.416;13.428;2022-12-18T00:20:25;38.25;;;11.45;;
56083;SDS011;41958;52.416;13.428;2022-12-18T00:22:54;38.80;;;12.85;;
56083;SDS011;41958;52.416;13.428;2022-12-18T00:25:19;36.72;;;10.90;;
56083;SDS011;41958;52.416;13.428;2022-12-18T00:27:45;38.00;;;10.90;;
56083;SDS011;41958;52.416;13.428;2022-12-18T00:30:10;31.30;;;9.88;;
56083;SDS011;41958;52.416;13.428;2022-12-18T00:32:36;35.42;;;10.55;;
56083;SDS011;41958;52.416;13.428;2022-12-18T00:35:01;37.97;;;11.13;;
56083;SDS011;41958;52.416;13.428;2022-12-18T00:37:27;37.17;;;10.73;;
56083;SDS011;41958;52.416;13.428;2022-12-18T00:39:53;35.50;;;11.13;;
56083;SDS011;41958;52.416;13.428;2022-12-18T00:42:18;36.83;;;11.02;;
56083;SDS011;41958;52.416;13.428;2022-12-18T00:47:27;34.72;;;10.45;;
56083;SDS011;41958;52.416;13.428;2022-12-18T00:49:53;35.55;;;11.82;;
56083;SDS011;41958;52.416;13.428;2022-12-18T00:52:18;33.15;;;10.20;;
56083;SDS011;41958;52.416;13.428;2022-12-18T00:54:43;40.88;;;11.80;;
56083;SDS011;41958;52.416;13.428;2022-12-18T00:57:08;38.63;;;10.02;;
56083;SDS011;41958;52.416;13.428;2022-12-18T00:59:34;35.60;;;11.05;;
56083;SDS011;41958;52.416;13.428;2022-12-18T01:01:59;32.78;;;10.85;;
56083;SDS011;41958;52.416;13.428;2022-12-18T01:04:24;35.80;;;11.00;;
56083;SDS011;41958;52.416;13.428;2022-12-18T01:06:49;39.47;;;12.63;;
56083;SDS011;41958;52.416;13.428;2022-12-18T01:09:15;39.50;;;12.20;;
56083;SDS011;41958;52.416;13.428;2022-12-18T01:11:40;46.03;;;13.63;;
56083;SDS011;41958;52.416;13.428;2022-12-18T01:14:05;48.33;;;14.40;;
56083;SDS011;41958;52.416;13.428;2022-12-18T01:16:30;49.95;;;13.70;;
56083;SDS011;41958;52.416;13.428;2022-12-18T01:18:56;50.83;;;14.80;;
56083;SDS011;41958;52.416;13.428;2022-12-18T01:21:22;48.53;;;12.75;;
56083;SDS011;41958;52.416;13.428;2022-12-18T01:23:51;48.85;;;15.15;;
56083;SDS011;41958;52.416;13.428;2022-12-18T01:26:18;54.83;;;13.80;;
56083;SDS011;41958;52.416;13.428;2022-12-18T01:28:44;48.45;;;15.02;;
56083;SDS011;41958;52.416;13.428;2022-12-18T01:31:14;56.45;;;16.55;;
56083;SDS011;41958;52.416;13.428;2022-12-18T01:33:41;50.15;;;15.88;;
56083;SDS011;41958;52.416;13.428;2022-12-18T01:36:07;59.95;;;15.65;;
56083;SDS011;41958;52.416;13.428;2022-12-18T01:38:33;53.58;;;16.25;;
56083;SDS011;41958;52.416;13.428;2022-12-18T01:40:58;60.25;;;15.85;;
56083;SDS011;41958;52.416;13.428;2022-12-18T01:43:41;56.75;;;15.35;;
56083;SDS011;41958;52.416;13.428;2022-12-18T01:46:18;51.92;;;15.60;;
56083;SDS011;41958;52.416;13.428;2022-12-18T01:48:45;62.90;;;16.85;;
56083;SDS011;41958;52.416;13.428;2022-12-18T01:51:15;66.60;;;17.85;;
56083;SDS011;41958;52.416;13.428;2022-12-18T01:53:41;67.05;;;17.17;;
56083;SDS011;41958;52.416;13.428;2022-12-18T01:56:08;65.15;;;16.88;;
56083;SDS011;41958;52.416;13.428;2022-12-18T01:58:44;67.20;;;18.23;;
56083;SDS011;41958;52.416;13.428;2022-12-18T02:01:16;63.60;;;17.30;;
56083;SDS011;41958;52.416;13.428;2022-12-18T02:03:42;60.83;;;17.23;;
56083;SDS011;41958;52.416;13.428;2022-12-18T02:06:20;60.88;;;17.95;;
56083;SDS011;41958;52.416;13.428;2022-12-18T02:09:03;59.53;;;16.80;;
56083;SDS011;41958;52.416;13.428;2022-12-18T02:17:25;52.67;;;16.80;;
56083;SDS011;41958;52.416;13.428;2022-12-18T02:20:17;70.68;;;17.55;;
56083;SDS011;41958;52.416;13.428;2022-12-18T02:22:53;66.75;;;18.38;;
56083;SDS011;41958;52.416;13.428;2022-12-18T02:26:01;64.68;;;17.73;;
56083;SDS011;41958;52.416;13.428;2022-12-18T02:28:41;68.47;;;17.90;;
56083;SDS011;41958;52.416;13.428;2022-12-18T02:31:15;70.05;;;17.88;;
56083;SDS011;41958;52.416;13.428;2022-12-18T02:33:46;70.70;;;17.65;;
56083;SDS011;41958;52.416;13.428;2022-12-18T02:36:14;69.05;;;18.88;;
56083;SDS011;41958;52.416;13.428;2022-12-18T02:38:42;67.95;;;17.95;;
56083;SDS011;41958;52.416;13.428;2022-12-18T02:41:09;65.38;;;16.70;;
56083;SDS011;41958;52.416;13.428;2022-12-18T02:43:36;50.80;;;15.68;;
56083;SDS011;41958;52.416;13.428;2022-12-18T02:46:20;59.97;;;17.05;;
56083;SDS011;41958;52.416;13.428;2022-12-18T02:51:51;62.08;;;18.48;;
56083;SDS011;41958;52.416;13.428;2022-12-18T02:57:50;58.25;;;16.50;;
56083;SDS011;41958;52.416;13.428;2022-12-18T03:00:28;52.85;;;16.75;;
56083;SDS011;41958;52.416;13.428;2022-12-18T03:03:05;54.20;;;15.90;;
56083;SDS011;41958;52.416;13.428;2022-12-18T03:05:39;52.13;;;15.82;;
56083;SDS011;41958;52.416;13.428;2022-12-18T03:08:15;63.10;;;17.05;;
56083;SDS011;41958;52.416;13.428;2022-12-18T03:10:47;58.75;;;16.17;;
56083;SDS011;41958;52.416;13.428;2022-12-18T03:13:18;59.60;;;16.38;;
56083;SDS011;41958;52.416;13.428;2022-12-18T03:15:49;56.97;;;16.00;;
56083;SDS011;41958;52.416;13.428;2022-12-18T03:18:19;62.40;;;16.92;;
56083;SDS011;41958;52.416;13.428;2022-12-18T03:20:48;61.53;;;17.42;;
56083;SDS011;41958;52.416;13.428;2022-12-18T03:23:19;59.63;;;15.75;;
56083;SDS011;41958;52.416;13.428;2022-12-18T03:25:47;63.47;;;16.92;;
56083;SDS011;41958;52.416;13.428;2022-12-18T03:28:20;56.45;;;16.02;;
56083;SDS011;41958;52.416;13.428;2022-12-18T03:30:47;53.50;;;16.05;;
56083;SDS011;41958;52.416;13.428;2022-12-18T03:33:18;54.25;;;16.17;;
56083;SDS011;41958;52.416;13.428;2022-12-18T03:35:49;62.67;;;16.60;;
56083;SDS011;41958;52.416;13.428;2022-12-18T03:38:14;44.47;;;14.93;;
56083;SDS011;41958;52.416;13.428;2022-12-18T03:43:35;45.70;;;14.25;;
56083;SDS011;41958;52.416;13.428;2022-12-18T03:46:09;49.67;;;14.02;;
56083;SDS011;41958;52.416;13.428;2022-12-18T03:48:43;54.22;;;14.27;;
56083;SDS011;41958;52.416;13.428;2022-12-18T03:51:17;52.30;;;13.95;;
56083;SDS011;41958;52.416;13.428;2022-12-18T03:53:57;53.45;;;14.55;;
56083;SDS011;41958;52.416;13.428;2022-12-18T03:56:25;58.22;;;15.77;;
56083;SDS011;41958;52.416;13.428;2022-12-18T03:58:54;57.33;;;15.82;;
56083;SDS011;41958;52.416;13.428;2022-12-18T04:01:23;55.50;;;14.88;;
56083;SDS011;41958;52.416;13.428;2022-12-18T04:06:23;45.22;;;11.98;;
56083;SDS011;41958;52.416;13.428;2022-12-18T04:08:49;48.63;;;12.75;;
56083;SDS011;41958;52.416;13.428;2022-12-18T04:11:15;48.13;;;12.75;;
56083;SDS011;41958;52.416;13.428;2022-12-18T04:13:41;39.78;;;12.05;;
56083;SDS011;41958;52.416;13.428;2022-12-18T04:16:07;42.47;;;11.93;;
56083;SDS011;41958;52.416;13.428;2022-12-18T04:18:34;43.65;;;12.90;;
56083;SDS011;41958;52.416;13.428;2022-12-18T04:21:00;37.30;;;11.75;;
56083;SDS011;41958;52.416;13.428;2022-12-18T04:23:26;37.47;;;11.90;;
56083;SDS011;41958;52.416;13.428;2022-12-18T04:25:51;40.15;;;12.27;;
56083;SDS011;41958;52.416;13.428;2022-12-18T04:28:16;44.63;;;12.32;;
56083;SDS011;41958;52.416;13.428;2022-12-18T04:30:42;42.28;;;11.23;;
56083;SDS011;41958;52.416;13.428;2022-12-18T04:33:10;39.00;;;10.70;;
56083;SDS011;41958;52.416;13.428;2022-12-18T04:35:36;40.05;;;12.10;;
56083;SDS011;41958;52.416;13.428;2022-12-18T04:38:01;42.70;;;13.20;;
56083;SDS011;41958;52.416;13.428;2022-12-18T04:40:26;38.08;;;11.80;;
56083;SDS011;41958;52.416;13.428;2022-12-18T04:42:51;43.60;;;10.70;;
56083;SDS011;41958;52.416;13.428;2022-12-18T04:45:17;44.35;;;12.73;;
56083;SDS011;41958;52.416;13.428;2022-12-18T04:47:42;37.22;;;11.90;;
56083;SDS011;41958;52.416;13.428;2022-12-18T04:50:07;39.75;;;12.13;;
56083;SDS011;41958;52.416;13.428;2022-12-18T04:52:32;36.30;;;11.15;;
56083;SDS011;41958;52.416;13.428;2022-12-18T04:54:58;32.55;;;10.23;;
56083;SDS011;41958;52.416;13.428;2022-12-18T04:57:23;39.38;;;11.60;;
56083;SDS011;41958;52.416;13.428;2022-12-18T04:59:48;47.92;;;11.95;;
56083;SDS011;41958;52.416;13.428;2022-12-18T05:02:13;42.95;;;12.02;;
56083;SDS011;41958;52.416;13.428;2022-12-18T05:04:39;44.75;;;12.75;;
56083;SDS011;41958;52.416;13.428;2022-12-18T05:07:04;45.63;;;14.45;;
56083;SDS011;41958;52.416;13.428;2022-12-18T05:09:29;48.75;;;11.38;;
56083;SDS011;41958;52.416;13.428;2022-12-18T05:11:54;41.60;;;12.45;;
56083;SDS011;41958;52.416;13.428;2022-12-18T05:14:20;40.60;;;12.15;;
56083;SDS011;41958;52.416;13.428;2022-12-18T05:16:45;54.70;;;13.25;;
56083;SDS011;41958;52.416;13.428;2022-12-18T05:19:10;45.10;;;12.35;;
56083;SDS011;41958;52.416;13.428;2022-12-18T05:21:35;46.10;;;13.50;;
56083;SDS011;41958;52.416;13.428;2022-12-18T05:24:01;52.88;;;13.77;;
56083;SDS011;41958;52.416;13.428;2022-12-18T05:26:26;41.80;;;13.30;;
56083;SDS011;41958;52.416;13.428;2022-12-18T05:28:51;48.88;;;13.63;;
56083;SDS011;41958;52.416;13.428;2022-12-18T05:31:16;51.25;;;13.88;;
56083;SDS011;41958;52.416;13.428;2022-12-18T05:33:42;49.38;;;14.27;;
56083;SDS011;41958;52.416;13.428;2022-12-18T05:36:08;49.67;;;14.05;;
56083;SDS011;41958;52.416;13.428;2022-12-18T05:38:35;45.20;;;13.35;;
56083;SDS011;41958;52.416;13.428;2022-12-18T05:41:02;41.17;;;12.38;;
56083;SDS011;41958;52.416;13.428;2022-12-18T05:43:28;45.05;;;12.50;;
56083;SDS011;41958;52.416;13.428;2022-12-18T05:45:53;49.42;;;15.02;;
56083;SDS011;41958;52.416;13.428;2022-12-18T05:48:19;42.70;;;11.70;;
56083;SDS011;41958;52.416;13.428;2022-12-18T05:50:45;47.72;;;13.95;;
56083;SDS011;41958;52.416;13.428;2022-12-18T05:53:13;41.45;;;12.10;;
56083;SDS011;41958;52.416;13.428;2022-12-18T05:55:40;42.10;;;13.00;;
56083;SDS011;41958;52.416;13.428;2022-12-18T05:58:06;38.40;;;12.60;;
56083;SDS011;41958;52.416;13.428;2022-12-18T06:00:34;46.63;;;12.32;;
56083;SDS011;41958;52.416;13.428;2022-12-18T06:03:01;43.95;;;13.52;;
56083;SDS011;41958;52.416;13.428;2022-12-18T06:05:27;42.22;;;12.02;;
56083;SDS011;41958;52.416;13.428;2022-12-18T06:07:52;45.47;;;14.45;;
56083;SDS011;41958;52.416;13.428;2022-12-18T06:10:17;41.20;;;12.93;;
56083;SDS011;41958;52.416;13.428;2022-12-18T06:12:43;48.38;;;13.35;;
56083;SDS011;41958;52.416;13.428;2022-12-18T06:15:08;47.75;;;12.55;;
56083;SDS011;41958;52.416;13.428;2022-12-18T06:17:35;43.95;;;13.35;;
56083;SDS011;41958;52.416;13.428;2022-12-18T06:20:00;40.10;;;12.02;;
56083;SDS011;41958;52.416;13.428;2022-12-18T06:22:26;40.30;;;13.10;;
56083;SDS011;41958;52.416;13.428;2022-12-18T06:24:52;41.50;;;13.10;;
56083;SDS011;41958;52.416;13.428;2022-12-18T06:27:17;45.33;;;13.40;;
56083;SDS011;41958;52.416;13.428;2022-12-18T06:29:43;45.03;;;14.18;;
56083;SDS011;41958;52.416;13.428;2022-12-18T06:32:08;43.30;;;12.80;;
56083;SDS011;41958;52.416;13.428;2022-12-18T06:34:33;41.47;;;12.85;;
56083;SDS011;41958;52.416;13.428;2022-12-18T06:37:00;54.58;;;14.45;;
56083;SDS011;41958;52.416;13.428;2022-12-18T06:39:28;54.00;;;14.45;;
56083;SDS011;41958;52.416;13.428;2022-12-18T06:41:53;46.85;;;12.73;;
56083;SDS011;41958;52.416;13.428;2022-12-18T06:44:19;49.22;;;14.98;;
56083;SDS011;41958;52.416;13.428;2022-12-18T06:46:44;39.95;;;13.00;;
56083;SDS011;41958;52.416;13.428;2022-12-18T06:49:09;46.72;;;12.75;;
56083;SDS011;41958;52.416;13.428;2022-12-18T06:51:35;51.88;;;13.32;;
56083;SDS011;41958;52.416;13.428;2022-12-18T06:54:00;44.78;;;13.18;;
56083;SDS011;41958;52.416;13.428;2022-12-18T06:56:25;42.42;;;12.25;;
56083;SDS011;41958;52.416;13.428;2022-12-18T06:58:51;44.55;;;14.18;;
56083;SDS011;41958;52.416;13.428;2022-12-18T07:01:16;44.83;;;12.80;;
56083;SDS011;41958;52.416;13.428;2022-12-18T07:03:42;46.03;;;12.70;;
56083;SDS011;41958;52.416;13.428;2022-12-18T07:06:12;48.88;;;13.27;;
56083;SDS011;41958;52.416;13.428;2022-12-18T07:08:39;47.85;;;13.45;;
56083;SDS011;41958;52.416;13.428;2022-12-18T07:11:05;43.88;;;13.52;;
56083;SDS011;41958;52.416;13.428;2022-12-18T07:13:30;49.88;;;14.35;;
56083;SDS011;41958;52.416;13.428;2022-12-18T07:16:02;46.55;;;13.52;;
56083;SDS011;41958;52.416;13.428;2022-12-18T07:18:28;48.40;;;13.63;;
56083;SDS011;41958;52.416;13.428;2022-12-18T07:20:54;45.78;;;13.18;;
56083;SDS011;41958;52.416;13.428;2022-12-18T07:23:19;52.58;;;14.68;;
56083;SDS011;41958;52.416;13.428;2022-12-18T07:25:44;55.45;;;14.40;;
56083;SDS011;41958;52.416;13.428;2022-12-18T07:28:09;48.50;;;13.13;;
56083;SDS011;41958;52.416;13.428;2022-12-18T07:30:36;50.10;;;13.75;;
56083;SDS011;41958;52.416;13.428;2022-12-18T07:33:03;44.40;;;13.63;;
56083;SDS011;41958;52.416;13.428;2022-12-18T07:35:28;45.22;;;12.75;;
56083;SDS011;41958;52.416;13.428;2022-12-18T07:37:53;45.00;;;12.43;;
56083;SDS011;41958;52.416;13.428;2022-12-18T07:40:18;48.63;;;13.25;;
56083;SDS011;41958;52.416;13.428;2022-12-18T07:42:44;45.33;;;13.73;;
56083;SDS011;41958;52.416;13.428;2022-12-18T07:45:09;46.97;;;15.10;;
56083;SDS011;41958;52.416;13.428;2022-12-18T07:47:35;53.40;;;16.50;;
56083;SDS011;41958;52.416;13.428;2022-12-18T07:50:06;53.42;;;13.82;;
56083;SDS011;41958;52.416;13.428;2022-12-18T07:52:31;50.10;;;14.18;;
56083;SDS011;41958;52.416;13.428;2022-12-18T07:54:57;49.05;;;11.68;;
56083;SDS011;41958;52.416;13.428;2022-12-18T07:57:22;47.63;;;14.02;;
56083;SDS011;41958;52.416;13.428;2022-12-18T07:59:47;48.83;;;13.80;;
56083;SDS011;41958;52.416;13.428;2022-12-18T08:02:12;46.03;;;15.13;;
56083;SDS011;41958;52.416;13.428;2022-12-18T08:04:38;42.00;;;12.75;;
56083;SDS011;41958;52.416;13.428;2022-12-18T08:07:03;49.60;;;13.40;;
56083;SDS011;41958;52.416;13.428;2022-12-18T08:09:28;46.40;;;12.73;;
56083;SDS011;41958;52.416;13.428;2022-12-18T08:11:53;46.38;;;13.20;;
56083;SDS011;41958;52.416;13.428;2022-12-18T08:14:19;47.40;;;12.20;;
56083;SDS011;41958;52.416;13.428;2022-12-18T08:16:44;46.85;;;13.30;;
56083;SDS011;41958;52.416;13.428;2022-12-18T08:19:09;46.20;;;12.80;;
56083;SDS011;41958;52.416;13.428;2022-12-18T08:21:35;45.03;;;12.60;;
56083;SDS011;41958;52.416;13.428;2022-12-18T08:24:00;46.58;;;13.63;;
56083;SDS011;41958;52.416;13.428;2022-12-18T08:26:27;43.28;;;12.95;;
56083;SDS011;41958;52.416;13.428;2022-12-18T08:28:54;37.60;;;11.23;;
56083;SDS011;41958;52.416;13.428;2022-12-18T08:31:21;37.92;;;11.80;;
56083;SDS011;41958;52.416;13.428;2022-12-18T08:33:50;41.65;;;11.70;;
56083;SDS011;41958;52.416;13.428;2022-12-18T08:36:16;39.75;;;10.75;;
56083;SDS011;41958;52.416;13.428;2022-12-18T08:38:42;39.40;;;11.48;;
56083;SDS011;41958;52.416;13.428;2022-12-18T08:41:08;42.80;;;12.05;;
56083;SDS011;41958;52.416;13.428;2022-12-18T08:43:36;33.28;;;11.88;;
56083;SDS011;41958;52.416;13.428;2022-12-18T08:46:20;37.33;;;11.13;;
56083;SDS011;41958;52.416;13.428;2022-12-18T08:48:47;34.92;;;11.18;;
56083;SDS011;41958;52.416;13.428;2022-12-18T08:51:15;42.22;;;11.88;;
56083;SDS011;41958;52.416;13.428;2022-12-18T08:53:41;41.17;;;11.77;;
56083;SDS011;41958;52.416;13.428;2022-12-18T08:56:07;39.88;;;12.25;;
56083;SDS011;41958;52.416;13.428;2022-12-18T08:58:32;39.78;;;11.25;;
56083;SDS011;41958;52.416;13.428;2022-12-18T09:01:01;37.95;;;12.52;;
56083;SDS011;41958;52.416;13.428;2022-12-18T09:03:27;31.80;;;10.73;;
56083;SDS011;41958;52.416;13.428;2022-12-18T09:05:53;41.67;;;12.70;;
56083;SDS011;41958;52.416;13.428;2022-12-18T09:08:18;38.05;;;12.07;;
56083;SDS011;41958;52.416;13.428;2022-12-18T09:10:44;33.38;;;10.52;;
56083;SDS011;41958;52.416;13.428;2022-12-18T09:13:11;37.15;;;10.90;;
56083;SDS011;41958;52.416;13.428;2022-12-18T09:15:40;33.70;;;10.98;;
56083;SDS011;41958;52.416;13.428;2022-12-18T09:18:14;39.75;;;11.48;;
56083;SDS011;41958;52.416;13.428;2022-12-18T09:20:40;39.88;;;11.25;;
56083;SDS011;41958;52.416;13.428;2022-12-18T09:23:06;40.03;;;11.90;;
56083;SDS011;41958;52.416;13.428;2022-12-18T09:25:33;40.67;;;12.70;;
56083;SDS011;41958;52.416;13.428;2022-12-18T09:28:00;47.78;;;12.27;;
56083;SDS011;41958;52.416;13.428;2022-12-18T09:30:26;40.38;;;12.90;;
56083;SDS011;41958;52.416;13.428;2022-12-18T09:32:55;46.00;;;14.00;;
56083;SDS011;41958;52.416;13.428;2022-12-18T09:35:20;46.78;;;13.00;;
56083;SDS011;41958;52.416;13.428;2022-12-18T09:37:46;43.47;;;13.05;;
56083;SDS011;41958;52.416;13.428;2022-12-18T09:40:14;42.25;;;13.02;;
56083;SDS011;41958;52.416;13.428;2022-12-18T09:42:43;45.80;;;13.23;;
56083;SDS011;41958;52.416;13.428;2022-12-18T09:45:13;44.40;;;12.70;;
56083;SDS011;41958;52.416;13.428;2022-12-18T09:47:39;41.95;;;13.00;;
56083;SDS011;41958;52.416;13.428;2022-12-18T09:50:27;44.55;;;12.07;;
56083;SDS011;41958;52.416;13.428;2022-12-18T09:52:57;43.67;;;12.18;;
56083;SDS011;41958;52.416;13.428;2022-12-18T09:55:30;41.35;;;12.80;;
56083;SDS011;41958;52.416;13.428;2022-12-18T09:58:04;40.03;;;11.98;;
56083;SDS011;41958;52.416;13.428;2022-12-18T10:00:42;46.80;;;13.95;;
56083;SDS011;41958;52.416;13.428;2022-12-18T10:03:12;36.35;;;12.05;;
56083;SDS011;41958;52.416;13.428;2022-12-18T10:08:58;45.60;;;13.00;;
56083;SDS011;41958;52.416;13.428;2022-12-18T10:14:29;39.90;;;12.48;;
56083;SDS011;41958;52.416;13.428;2022-12-18T10:19:47;45.60;;;14.18;;
56083;SDS011;41958;52.416;13.428;2022-12-18T10:22:42;47.15;;;13.38;;
56083;SDS011;41958;52.416;13.428;2022-12-18T10:28:17;42.17;;;14.38;;
56083;SDS011;41958;52.416;13.428;2022-12-18T10:30:44;45.35;;;13.88;;
56083;SDS011;41958;52.416;13.428;2022-12-18T10:33:16;39.70;;;13.68;;
56083;SDS011;41958;52.416;13.428;2022-12-18T10:35:44;48.53;;;13.55;;
56083;SDS011;41958;52.416;13.428;2022-12-18T10:40:56;53.85;;;14.88;;
56083;SDS011;41958;52.416;13.428;2022-12-18T10:45:58;44.22;;;13.35;;
56083;SDS011;41958;52.416;13.428;2022-12-18T10:48:38;48.78;;;13.93;;
56083;SDS011;41958;52.416;13.428;2022-12-18T10:51:19;47.75;;;14.48;;
56083;SDS011;41958;52.416;13.428;2022-12-18T10:53:50;44.75;;;14.32;;
56083;SDS011;41958;52.416;13.428;2022-12-18T10:56:19;42.40;;;13.35;;
56083;SDS011;41958;52.416;13.428;2022-12-18T10:58:46;45.38;;;13.63;;
56083;SDS011;41958;52.416;13.428;2022-12-18T11:01:23;46.10;;;12.95;;
56083;SDS011;41958;52.416;13.428;2022-12-18T11:06:21;40.20;;;12.65;;
56083;SDS011;41958;52.416;13.428;2022-12-18T11:11:23;40.92;;;11.88;;
56083;SDS011;41958;52.416;13.428;2022-12-18T11:13:56;37.08;;;13.20;;
56083;SDS011;41958;52.416;13.428;2022-12-18T11:16:26;35.03;;;11.90;;
56083;SDS011;41958;52.416;13.428;2022-12-18T11:18:52;45.38;;;12.82;;
56083;SDS011;41958;52.416;13.428;2022-12-18T11:21:18;39.40;;;12.88;;
56083;SDS011;41958;52.416;13.428;2022-12-18T11:26:15;39.40;;;12.15;;
56083;SDS011;41958;52.416;13.428;2022-12-18T11:28:46;45.28;;;14.68;;
56083;SDS011;41958;52.416;13.428;2022-12-18T11:34:17;45.67;;;13.32;;
56083;SDS011;41958;52.416;13.428;2022-12-18T11:36:55;44.15;;;12.98;;
56083;SDS011;41958;52.416;13.428;2022-12-18T11:39:31;39.63;;;12.30;;
56083;SDS011;41958;52.416;13.428;2022-12-18T11:44:54;38.20;;;13.68;;
56083;SDS011;41958;52.416;13.428;2022-12-18T11:52:50;36.08;;;11.63;;
56083;SDS011;41958;52.416;13.428;2022-12-18T11:55:20;32.40;;;11.23;;
56083;SDS011;41958;52.416;13.428;2022-12-18T11:57:54;36.50;;;12.38;;
56083;SDS011;41958;52.416;13.428;2022-12-18T12:00:28;38.42;;;11.77;;
56083;SDS011;41958;52.416;13.428;2022-12-18T12:14:35;37.70;;;11.07;;
56083;SDS011;41958;52.416;13.428;2022-12-18T12:19:51;32.80;;;11.50;;
56083;SDS011;41958;52.416;13.428;2022-12-18T12:33:09;31.25;;;11.73;;
56083;SDS011;41958;52.416;13.428;2022-12-18T12:38:43;40.95;;;13.30;;
56083;SDS011;41958;52.416;13.428;2022-12-18T12:41:16;38.33;;;12.68;;
56083;SDS011;41958;52.416;13.428;2022-12-18T12:44:04;34.92;;;11.98;;
56083;SDS011;41958;52.416;13.428;2022-12-18T12:46:34;37.35;;;12.15;;
56083;SDS011;41958;52.416;13.428;2022-12-18T12:49:03;39.60;;;13.10;;
56083;SDS011;41958;52.416;13.428;2022-12-18T12:51:34;31.95;;;12.20;;
56083;SDS011;41958;52.416;13.428;2022-12-18T12:54:05;32.60;;;11.85;;
56083;SDS011;41958;52.416;13.428;2022-12-18T12:56:41;35.38;;;12.25;;
56083;SDS011;41958;52.416;13.428;2022-12-18T13:02:15;35.85;;;13.18;;
56083;SDS011;41958;52.416;13.428;2022-12-18T13:04:50;39.28;;;13.13;;
56083;SDS011;41958;52.416;13.428;2022-12-18T13:12:53;43.10;;;14.82;;
56083;SDS011;41958;52.416;13.428;2022-12-18T13:15:21;30.80;;;12.77;;
56083;SDS011;41958;52.416;13.428;2022-12-18T13:17:49;37.45;;;14.85;;
56083;SDS011;41958;52.416;13.428;2022-12-18T13:20:32;37.72;;;14.63;;
56083;SDS011;41958;52.416;13.428;2022-12-18T13:23:18;38.85;;;15.07;;
56083;SDS011;41958;52.416;13.428;2022-12-18T13:25:54;38.55;;;14.52;;
56083;SDS011;41958;52.416;13.428;2022-12-18T13:30:59;39.15;;;14.95;;
56083;SDS011;41958;52.416;13.428;2022-12-18T13:35:52;39.97;;;14.15;;
56083;SDS011;41958;52.416;13.428;2022-12-18T13:38:35;40.03;;;14.52;;
56083;SDS011;41958;52.416;13.428;2022-12-18T13:43:28;42.85;;;15.77;;
56083;SDS011;41958;52.416;13.428;2022-12-18T13:46:04;46.72;;;16.55;;
56083;SDS011;41958;52.416;13.428;2022-12-18T13:48:32;47.70;;;16.33;;
56083;SDS011;41958;52.416;13.428;2022-12-18T13:51:02;48.42;;;16.58;;
56083;SDS011;41958;52.416;13.428;2022-12-18T13:56:00;49.67;;;17.60;;
56083;SDS011;41958;52.416;13.428;2022-12-18T13:58:27;50.00;;;17.80;;
56083;SDS011;41958;52.416;13.428;2022-12-18T14:00:52;45.10;;;16.80;;
56083;SDS011;41958;52.416;13.428;2022-12-18T14:03:19;55.13;;;17.85;;
56083;SDS011;41958;52.416;13.428;2022-12-18T14:05:51;55.55;;;17.23;;
56083;SDS011;41958;52.416;13.428;2022-12-18T14:08:19;54.17;;;19.73;;
56083;SDS011;41958;52.416;13.428;2022-12-18T14:10:47;54.40;;;18.20;;
56083;SDS011;41958;52.416;13.428;2022-12-18T14:13:15;62.95;;;20.55;;
56083;SDS011;41958;52.416;13.428;2022-12-18T14:15:48;60.50;;;19.50;;
56083;SDS011;41958;52.416;13.428;2022-12-18T14:18:36;60.08;;;19.00;;
56083;SDS011;41958;52.416;13.428;2022-12-18T14:21:17;54.38;;;17.80;;
56083;SDS011;41958;52.416;13.428;2022-12-18T14:23:45;48.72;;;16.70;;
56083;SDS011;41958;52.416;13.428;2022-12-18T14:28:45;54.53;;;18.17;;
56083;SDS011;41958;52.416;13.428;2022-12-18T14:31:20;57.13;;;18.80;;
56083;SDS011;41958;52.416;13.428;2022-12-18T14:33:47;43.83;;;15.13;;
56083;SDS011;41958;52.416;13.428;2022-12-18T14:36:16;42.88;;;16.88;;
56083;SDS011;41958;52.416;13.428;2022-12-18T14:38:49;39.33;;;14.98;;
56083;SDS011;41958;52.416;13.428;2022-12-18T14:41:20;45.95;;;15.95;;
56083;SDS011;41958;52.416;13.428;2022-12-18T14:43:48;38.83;;;15.55;;
56083;SDS011;41958;52.416;13.428;2022-12-18T14:48:54;33.97;;;13.30;;
56083;SDS011;41958;52.416;13.428;2022-12-18T14:51:22;38.58;;;14.50;;
56083;SDS011;41958;52.416;13.428;2022-12-18T14:53:56;37.95;;;14.05;;
56083;SDS011;41958;52.416;13.428;2022-12-18T14:56:26;33.00;;;13.98;;
56083;SDS011;41958;52.416;13.428;2022-12-18T14:58:57;37.80;;;14.07;;
56083;SDS011;41958;52.416;13.428;2022-12-18T15:01:32;31.55;;;12.82;;
56083;SDS011;41958;52.416;13.428;2022-12-18T15:04:00;30.48;;;11.27;;
56083;SDS011;41958;52.416;13.428;2022-12-18T15:06:31;30.02;;;12.40;;
56083;SDS011;41958;52.416;13.428;2022-12-18T15:11:45;22.45;;;9.88;;
56083;SDS011;41958;52.416;13.428;2022-12-18T15:16:54;28.50;;;11.50;;
56083;SDS011;41958;52.416;13.428;2022-12-18T15:19:21;32.67;;;12.10;;
56083;SDS011;41958;52.416;13.428;2022-12-18T15:21:50;30.70;;;12.98;;
56083;SDS011;41958;52.416;13.428;2022-12-18T15:24:18;33.90;;;13.43;;
56083;SDS011;41958;52.416;13.428;2022-12-18T15:26:51;36.33;;;14.32;;
56083;SDS011;41958;52.416;13.428;2022-12-18T15:29:18;37.72;;;13.80;;
56083;SDS011;41958;52.416;13.428;2022-12-18T15:32:00;33.72;;;14.55;;
56083;SDS011;41958;52.416;13.428;2022-12-18T15:34:28;34.47;;;12.77;;
56083;SDS011;41958;52.416;13.428;2022-12-18T15:36:53;32.28;;;12.77;;
56083;SDS011;41958;52.416;13.428;2022-12-18T15:39:18;35.05;;;14.23;;
56083;SDS011;41958;52.416;13.428;2022-12-18T15:41:44;30.83;;;13.13;;
56083;SDS011;41958;52.416;13.428;2022-12-18T15:44:29;34.17;;;13.30;;
56083;SDS011;41958;52.416;13.428;2022-12-18T15:46:55;34.45;;;14.05;;
56083;SDS011;41958;52.416;13.428;2022-12-18T15:49:21;33.03;;;14.60;;
56083;SDS011;41958;52.416;13.428;2022-12-18T15:51:47;29.80;;;12.23;;
56083;SDS011;41958;52.416;13.428;2022-12-18T15:54:17;32.38;;;13.20;;
56083;SDS011;41958;52.416;13.428;2022-12-18T15:57:02;32.90;;;12.27;;
56083;SDS011;41958;52.416;13.428;2022-12-18T16:02:16;34.17;;;12.68;;
56083;SDS011;41958;52.416;13.428;2022-12-18T16:04:42;29.00;;;12.35;;
56083;SDS011;41958;52.416;13.428;2022-12-18T16:07:08;33.65;;;13.63;;
56083;SDS011;41958;52.416;13.428;2022-12-18T16:09:36;36.47;;;13.35;;
56083;SDS011;41958;52.416;13.428;2022-12-18T16:12:02;33.50;;;13.70;;
56083;SDS011;41958;52.416;13.428;2022-12-18T16:14:28;26.55;;;12.45;;